TimeCST,TemperatureF,Dew PointF,Humidity,Sea Level PressureIn,VisibilityMPH,Wind Direction,Wind SpeedMPH,Gust SpeedMPH,PrecipitationIn,Events,Conditions,WindDirDegrees,DateUTC
12:56 AM,36.0,32.0,86,30.34,10.0,NNE,6.9,-,N/A,,Clear,30,2013-12-11 06:56:00
1:56 AM,36.0,32.0,86,30.33,10.0,NE,6.9,-,N/A,,Clear,40,2013-12-11 07:56:00
2:56 AM,36.0,32.0,86,30.33,10.0,NE,6.9,-,N/A,,Clear,40,2013-12-11 08:56:00
3:56 AM,35.1,32.0,89,30.33,10.0,NNE,6.9,-,N/A,,Clear,30,2013-12-11 09:56:00
4:56 AM,35.1,30.9,85,30.34,10.0,NNE,6.9,-,N/A,,Clear,20,2013-12-11 10:56:00
5:56 AM,35.1,30.9,85,30.35,10.0,North,6.9,-,N/A,,Scattered Clouds,10,2013-12-11 11:56:00
6:56 AM,35.1,30.9,85,30.38,10.0,NNE,6.9,-,N/A,,Mostly Cloudy,20,2013-12-11 12:56:00
7:56 AM,36.0,30.9,82,30.39,10.0,NE,6.9,-,N/A,,Mostly Cloudy,40,2013-12-11 13:56:00
8:56 AM,41.0,32.0,70,30.41,10.0,NE,5.8,-,N/A,,Mostly Cloudy,50,2013-12-11 14:56:00
9:56 AM,46.9,32.0,56,30.40,10.0,NE,6.9,-,N/A,,Scattered Clouds,40,2013-12-11 15:56:00
10:56 AM,51.1,33.1,50,30.38,10.0,East,4.6,-,N/A,,Scattered Clouds,100,2013-12-11 16:56:00
11:56 AM,55.9,34.0,44,30.35,10.0,Calm,Calm,-,N/A,,Scattered Clouds,0,2013-12-11 17:56:00
12:56 PM,57.9,34.0,41,30.33,10.0,Calm,Calm,-,N/A,,Scattered Clouds,0,2013-12-11 18:56:00
1:56 PM,61.0,34.0,36,30.32,10.0,Variable,4.6,-,N/A,,Scattered Clouds,0,2013-12-11 19:56:00
2:56 PM,61.0,34.0,36,30.31,10.0,NNE,3.5,-,N/A,,Scattered Clouds,20,2013-12-11 20:56:00
3:56 PM,60.1,35.1,39,30.32,10.0,North,4.6,-,N/A,,Mostly Cloudy,360,2013-12-11 21:56:00
4:56 PM,57.0,39.9,53,30.34,10.0,North,5.8,-,N/A,,Mostly Cloudy,360,2013-12-11 22:56:00
5:56 PM,55.0,39.9,57,30.34,10.0,NNE,8.1,-,N/A,,Mostly Cloudy,20,2013-12-11 23:56:00
6:56 PM,54.0,39.9,59,30.35,10.0,NNE,11.5,-,N/A,,Overcast,20,2013-12-12 00:56:00
7:56 PM,53.1,37.9,57,30.37,10.0,North,6.9,-,N/A,,Overcast,350,2013-12-12 01:56:00
8:56 PM,52.0,37.9,59,30.39,10.0,NW,4.6,-,N/A,,Overcast,310,2013-12-12 02:56:00
9:56 PM,52.0,37.0,57,30.40,10.0,North,6.9,-,N/A,,Overcast,350,2013-12-12 03:56:00
10:56 PM,51.1,35.1,54,30.41,10.0,North,8.1,-,N/A,,Mostly Cloudy,360,2013-12-12 04:56:00
11:56 PM,50.0,34.0,54,30.40,10.0,North,6.9,-,N/A,,Overcast,360,2013-12-12 05:56:00